Time;durP1;ratioP1;P1;durP2;ratioP2;P2;SDS_P1;SDS_P2;PMS_P1;PMS_P2;Temp;Humidity;BMP_temperature;BMP_pressure;BME280_temperature;BME280_humidity;BME280_pressure;Samples;Min_cycle;Max_cycle;Signal;HPM_P1;HPM_P2
2022/11/25 00:01:23;;;;;;;8.80;1.33;;;8.90;99.90;;;;;;5021311;28;20185;-92
2022/11/25 00:03:50;;;;;;;3.17;1.57;;;8.90;99.90;;;;;;5036843;28;20210;-92
2022/11/25 00:06:25;;;;;;;1.87;1.63;;;8.90;99.90;;;;;;5019208;28;20210;-92
2022/11/25 00:08:59;;;;;;;0.40;0.40;;;8.90;99.90;;;;;;5035634;28;20288;-92
2022/11/25 00:11:26;;;;;;;2.13;1.43;;;8.90;99.90;;;;;;5035231;28;20214;-92
2022/11/25 00:13:52;;;;;;;1.90;1.20;;;8.90;99.90;;;;;;5036931;28;20308;-91
2022/11/25 00:16:20;;;;;;;1.00;0.97;;;8.90;99.90;;;;;;5020451;28;20202;-92
2022/11/25 00:18:49;;;;;;;0.80;0.80;;;8.90;99.90;;;;;;5021407;28;20193;-92
2022/11/25 00:21:18;;;;;;;1.53;0.63;;;8.90;99.90;;;;;;5052436;28;20216;-93
2022/11/25 00:23:48;;;;;;;10.10;0.90;;;8.90;99.90;;;;;;5051786;28;20223;-92
2022/11/25 00:26:15;;;;;;;3.30;1.23;;;8.90;99.90;;;;;;5034995;28;20221;-92
2022/11/25 00:28:43;;;;;;;1.33;0.90;;;8.90;99.90;;;;;;5038444;28;20214;-91
2022/11/25 00:31:16;;;;;;;0.73;0.73;;;8.90;99.90;;;;;;5054214;28;20803;-91
2022/11/25 00:33:42;;;;;;;1.47;0.77;;;8.90;99.90;;;;;;5037005;28;20182;-92
2022/11/25 00:36:30;;;;;;;1.90;1.23;;;8.90;99.90;;;;;;5021635;28;20271;-91
2022/11/25 00:38:58;;;;;;;0.87;0.87;;;8.90;99.90;;;;;;5037518;28;20213;-90
2022/11/25 00:46:54;;;;;;;7.00;2.20;;;8.90;99.90;;;;;;5037855;28;20636;-91
2022/11/25 00:49:20;;;;;;;2.73;1.53;;;8.90;99.90;;;;;;5019596;28;20277;-92
2022/11/25 00:51:46;;;;;;;1.97;1.47;;;8.90;99.90;;;;;;5004675;28;20195;-90
2022/11/25 00:54:11;;;;;;;0.77;0.67;;;8.90;99.90;;;;;;5004816;28;20344;-91
2022/11/25 00:56:37;;;;;;;3.90;0.73;;;8.90;99.90;;;;;;5019718;28;20210;-92
2022/11/25 00:59:03;;;;;;;1.13;0.90;;;8.90;99.90;;;;;;5019080;28;20248;-91
2022/11/25 01:01:29;;;;;;;3.60;1.80;;;9.00;99.90;;;;;;5019829;28;20296;-92
2022/11/25 01:03:55;;;;;;;7.87;1.00;;;9.00;99.90;;;;;;5003991;28;20210;-91
2022/11/25 01:06:21;;;;;;;2.83;1.70;;;9.00;99.90;;;;;;5005451;28;20642;-92
2022/11/25 01:08:47;;;;;;;5.97;2.00;;;9.00;99.90;;;;;;5020428;28;20222;-91
2022/11/25 01:11:16;;;;;;;1.47;1.10;;;9.00;99.90;;;;;;5003060;28;20297;-92
2022/11/25 01:13:42;;;;;;;0.50;0.50;;;8.90;99.90;;;;;;5036641;28;20245;-92
2022/11/25 01:16:11;;;;;;;1.53;1.43;;;8.90;99.90;;;;;;5036678;28;20202;-90
2022/11/25 01:18:37;;;;;;;5.80;2.07;;;8.90;99.90;;;;;;5039399;28;21110;-92
2022/11/25 01:21:07;;;;;;;0.40;0.40;;;8.90;99.90;;;;;;5004097;28;20222;-92
2022/11/25 01:23:33;;;;;;;5.10;1.07;;;8.90;99.90;;;;;;5036497;28;20230;-93
2022/11/25 01:26:26;;;;;;;0.97;0.97;;;8.90;99.90;;;;;;5039317;28;20293;-92
2022/11/25 01:28:57;;;;;;;1.00;0.67;;;8.90;99.90;;;;;;5035777;28;20222;-91
2022/11/25 01:31:25;;;;;;;1.17;0.67;;;8.90;99.90;;;;;;5040436;28;20189;-91
2022/11/25 01:33:57;;;;;;;1.23;0.80;;;8.90;99.90;;;;;;5041597;28;20178;-92
2022/11/25 01:36:23;;;;;;;2.17;1.70;;;8.90;99.90;;;;;;5039263;28;20212;-91
2022/11/25 01:38:52;;;;;;;2.93;0.80;;;9.00;99.90;;;;;;5039042;28;20228;-91
2022/11/25 01:41:19;;;;;;;0.73;0.63;;;8.90;99.90;;;;;;5057308;28;20225;-89
2022/11/25 01:44:06;;;;;;;7.90;0.80;;;9.00;99.90;;;;;;5039258;28;20266;-92
2022/11/25 01:46:45;;;;;;;4.43;1.40;;;9.00;99.90;;;;;;5039092;28;20252;-92
2022/11/25 01:49:26;;;;;;;9.00;1.77;;;9.00;99.90;;;;;;5041193;28;20235;-92
2022/11/25 01:52:04;;;;;;;1.47;1.03;;;9.00;99.90;;;;;;5038873;28;20646;-92
2022/11/25 01:54:39;;;;;;;1.60;1.50;;;9.00;99.90;;;;;;5039826;28;20218;-92
2022/11/25 01:57:12;;;;;;;0.60;0.60;;;9.00;99.90;;;;;;5039194;28;20278;-91
2022/11/25 01:59:44;;;;;;;1.10;0.67;;;9.00;99.90;;;;;;5039498;28;20580;-92
2022/11/25 02:02:10;;;;;;;1.50;1.40;;;9.10;99.90;;;;;;5038725;28;20214;-91
2022/11/25 02:04:38;;;;;;;0.87;0.80;;;9.00;99.90;;;;;;5023730;28;20287;-91
2022/11/25 02:07:10;;;;;;;0.40;0.40;;;9.00;99.90;;;;;;5024936;28;20190;-91
2022/11/25 02:09:40;;;;;;;1.63;1.00;;;9.10;99.90;;;;;;5040788;28;20218;-91
2022/11/25 02:12:06;;;;;;;1.03;0.93;;;9.10;99.90;;;;;;5038374;28;20787;-92
2022/11/25 02:14:32;;;;;;;0.77;0.77;;;9.10;99.90;;;;;;5021687;28;20229;-92
2022/11/25 02:17:00;;;;;;;2.57;1.07;;;9.10;99.90;;;;;;5040684;28;21291;-92
2022/11/25 02:19:37;;;;;;;2.33;2.13;;;9.00;99.90;;;;;;5037905;28;20335;-93
2022/11/25 02:22:08;;;;;;;0.80;0.80;;;9.00;99.90;;;;;;5038846;28;20292;-92
2022/11/25 02:24:50;;;;;;;1.00;0.77;;;9.00;99.90;;;;;;5038954;28;20226;-92
2022/11/25 02:27:16;;;;;;;1.43;1.10;;;9.00;99.90;;;;;;5039589;28;20308;-90
2022/11/25 02:29:43;;;;;;;1.13;1.03;;;9.00;99.90;;;;;;5022831;28;20310;-92
2022/11/25 02:32:09;;;;;;;11.63;1.70;;;9.00;99.90;;;;;;5005716;28;20273;-92
2022/11/25 02:34:34;;;;;;;4.47;1.10;;;9.00;99.90;;;;;;5022603;28;20225;-91
2022/11/25 02:37:00;;;;;;;0.33;0.33;;;9.00;99.90;;;;;;5006463;28;20204;-91
2022/11/25 02:39:27;;;;;;;0.77;0.67;;;9.00;99.90;;;;;;5022187;28;20219;-91
2022/11/25 02:41:58;;;;;;;5.27;1.50;;;9.00;99.90;;;;;;5038667;28;20259;-91
2022/11/25 02:44:24;;;;;;;5.77;1.23;;;9.00;99.90;;;;;;5056154;28;20892;-91
2022/11/25 02:46:49;;;;;;;1.13;0.67;;;9.00;99.90;;;;;;5005884;28;20364;-91
2022/11/25 02:49:15;;;;;;;1.97;1.87;;;9.00;99.90;;;;;;5022167;28;20186;-91
2022/11/25 02:51:43;;;;;;;1.00;0.80;;;9.00;99.90;;;;;;5023319;28;20198;-93
2022/11/25 02:54:10;;;;;;;2.50;1.93;;;9.10;99.90;;;;;;5022632;28;20218;-91
2022/11/25 02:56:37;;;;;;;4.30;2.27;;;9.00;99.90;;;;;;5022276;28;20371;-92
2022/11/25 02:59:03;;;;;;;1.57;0.80;;;9.00;99.90;;;;;;5038196;28;20214;-91
2022/11/25 03:01:30;;;;;;;0.83;0.80;;;9.10;99.90;;;;;;5021343;28;20821;-93
2022/11/25 03:03:56;;;;;;;7.23;2.67;;;9.10;99.90;;;;;;5022985;28;20220;-91
2022/11/25 03:06:21;;;;;;;4.27;1.23;;;9.10;99.90;;;;;;5005353;28;20211;-91
2022/11/25 03:08:47;;;;;;;1.20;1.20;;;9.10;99.90;;;;;;5038030;28;20221;-91
2022/11/25 03:11:14;;;;;;;1.43;1.40;;;9.10;99.90;;;;;;5021215;28;20220;-91
2022/11/25 03:13:40;;;;;;;0.73;0.73;;;9.10;99.90;;;;;;5005101;28;20218;-92
2022/11/25 03:16:06;;;;;;;3.70;1.07;;;9.10;99.90;;;;;;5037109;28;20221;-91
2022/11/25 03:18:32;;;;;;;0.43;0.43;;;9.10;99.90;;;;;;5021236;28;20220;-91
2022/11/25 03:20:58;;;;;;;14.53;1.47;;;9.10;99.90;;;;;;5012324;28;20206;-92
2022/11/25 03:23:37;;;;;;;1.57;1.23;;;9.10;99.90;;;;;;5020334;28;20218;-92
2022/11/25 03:26:06;;;;;;;1.30;0.83;;;9.10;99.90;;;;;;5037130;28;20312;-91
2022/11/25 03:28:32;;;;;;;4.67;1.80;;;9.20;99.90;;;;;;5022275;28;20229;-92
2022/11/25 03:30:58;;;;;;;0.80;0.80;;;9.20;99.90;;;;;;5006278;28;20241;-92
2022/11/25 03:33:23;;;;;;;5.20;1.13;;;9.20;99.90;;;;;;5021798;28;20690;-92
2022/11/25 03:35:49;;;;;;;3.57;1.00;;;9.20;99.90;;;;;;5004668;28;20291;-90
2022/11/25 03:38:15;;;;;;;1.33;1.27;;;9.30;99.90;;;;;;5021625;28;20218;-91
2022/11/25 03:40:40;;;;;;;1.17;0.93;;;9.30;99.90;;;;;;5004993;28;20217;-91
2022/11/25 03:43:06;;;;;;;1.60;1.50;;;9.30;99.90;;;;;;5003443;28;20253;-93
2022/11/25 03:45:32;;;;;;;2.43;1.57;;;9.40;99.90;;;;;;5002551;28;20325;-93
2022/11/25 03:47:58;;;;;;;1.87;0.77;;;9.40;99.90;;;;;;5004285;28;20211;-93
2022/11/25 03:50:23;;;;;;;1.83;1.53;;;9.40;99.90;;;;;;5003587;28;20288;-91
2022/11/25 03:52:49;;;;;;;3.73;1.73;;;9.40;99.90;;;;;;5012224;28;20321;-90
2022/11/25 03:55:15;;;;;;;1.47;1.40;;;9.40;99.90;;;;;;5004618;28;20193;-93
2022/11/25 03:57:41;;;;;;;1.73;1.40;;;9.40;99.90;;;;;;5004720;28;20190;-91
2022/11/25 04:00:08;;;;;;;2.47;1.57;;;9.40;99.90;;;;;;5022843;28;20210;-91
2022/11/25 04:02:34;;;;;;;8.97;1.27;;;9.40;99.90;;;;;;5020287;28;20214;-92
2022/11/25 04:04:59;;;;;;;2.00;1.90;;;9.40;99.90;;;;;;5004030;28;20224;-90
2022/11/25 04:07:25;;;;;;;0.47;0.47;;;9.40;99.90;;;;;;5004209;28;20528;-92
2022/11/25 04:09:51;;;;;;;5.80;1.30;;;9.40;99.90;;;;;;5021460;28;20607;-93
2022/11/25 04:15:00;;;;;;;2.50;1.60;;;9.50;99.90;;;;;;5022906;28;20214;-90
2022/11/25 04:17:26;;;;;;;1.60;1.50;;;9.40;99.90;;;;;;5004985;28;20228;-92
2022/11/25 04:19:52;;;;;;;1.60;1.50;;;9.40;99.90;;;;;;5005139;28;20218;-91
2022/11/25 04:22:18;;;;;;;9.73;1.93;;;9.50;99.90;;;;;;5020372;28;20192;-91
2022/11/25 04:24:43;;;;;;;1.43;1.13;;;9.50;99.90;;;;;;5021732;28;20680;-92
2022/11/25 04:27:09;;;;;;;2.33;1.47;;;9.50;99.90;;;;;;5003620;28;20210;-93
2022/11/25 04:29:35;;;;;;;11.63;1.33;;;9.50;99.90;;;;;;5003727;28;21244;-90
2022/11/25 04:32:01;;;;;;;1.30;1.17;;;9.50;99.90;;;;;;5004725;28;20218;-91
2022/11/25 04:34:26;;;;;;;7.93;1.47;;;9.50;99.90;;;;;;5003846;28;20293;-92
2022/11/25 04:36:52;;;;;;;6.70;3.97;;;9.50;99.90;;;;;;5004505;28;20682;-93
2022/11/25 04:39:18;;;;;;;1.83;1.73;;;9.50;99.90;;;;;;5003914;28;20209;-93
2022/11/25 04:41:44;;;;;;;2.20;1.40;;;9.50;99.90;;;;;;5020814;28;20344;-91
2022/11/25 04:44:09;;;;;;;2.50;1.47;;;9.50;99.90;;;;;;5003997;28;20234;-93
2022/11/25 04:46:39;;;;;;;4.67;2.40;;;9.50;99.90;;;;;;5004970;28;20301;-90
2022/11/25 04:49:04;;;;;;;2.63;2.43;;;9.50;99.90;;;;;;5054507;28;20177;-92
2022/11/25 04:51:30;;;;;;;15.70;1.07;;;9.50;99.90;;;;;;5001879;28;20733;-92
2022/11/25 04:53:57;;;;;;;4.20;1.30;;;9.50;99.90;;;;;;5036540;28;20221;-91
2022/11/25 04:56:23;;;;;;;1.63;1.47;;;9.50;99.90;;;;;;5037659;28;20241;-92
2022/11/25 05:01:33;;;;;;;1.03;1.03;;;9.40;99.90;;;;;;5041474;28;20205;-91
2022/11/25 05:03:59;;;;;;;1.23;1.20;;;9.40;99.90;;;;;;5008184;28;20214;-93
2022/11/25 05:06:25;;;;;;;2.27;1.47;;;9.40;99.90;;;;;;5023421;28;20210;-92
2022/11/25 05:08:51;;;;;;;3.23;1.93;;;9.40;99.90;;;;;;5024110;28;20292;-92
2022/11/25 05:11:17;;;;;;;7.00;1.87;;;9.40;99.90;;;;;;5007092;28;20215;-93
2022/11/25 05:13:42;;;;;;;3.90;2.67;;;9.40;99.90;;;;;;5040800;28;20210;-90
2022/11/25 05:16:08;;;;;;;2.80;1.20;;;9.40;99.90;;;;;;5023994;28;20185;-92
2022/11/25 05:18:34;;;;;;;2.13;1.33;;;9.40;99.90;;;;;;5008770;28;20193;-92
2022/11/25 05:21:04;;;;;;;2.00;1.80;;;9.40;99.90;;;;;;5006850;28;20234;-93
2022/11/25 05:23:30;;;;;;;1.33;1.23;;;9.40;99.90;;;;;;5022626;28;20226;-90
2022/11/25 05:26:03;;;;;;;23.80;2.03;;;9.40;99.90;;;;;;5040927;28;21292;-93
2022/11/25 05:28:30;;;;;;;3.13;1.73;;;9.40;99.90;;;;;;5040692;28;20233;-92
2022/11/25 05:30:56;;;;;;;2.27;1.67;;;9.40;99.90;;;;;;5022963;28;20202;-92
2022/11/25 05:33:22;;;;;;;2.43;1.83;;;9.40;99.90;;;;;;5008192;28;20238;-90
2022/11/25 05:35:56;;;;;;;1.53;1.40;;;9.40;99.90;;;;;;5023345;28;20218;-94
2022/11/25 05:38:22;;;;;;;1.90;1.73;;;9.40;99.90;;;;;;5023314;28;20674;-92
2022/11/25 05:40:48;;;;;;;2.27;1.97;;;9.40;99.90;;;;;;5023331;28;20336;-92
2022/11/25 05:43:13;;;;;;;5.73;1.97;;;9.40;99.90;;;;;;5007039;28;20237;-93
2022/11/25 05:45:39;;;;;;;1.47;1.37;;;9.50;99.90;;;;;;5006905;28;20539;-93
2022/11/25 05:48:05;;;;;;;5.33;2.17;;;9.50;99.90;;;;;;5005785;28;20207;-93
2022/11/25 05:50:31;;;;;;;6.13;1.67;;;9.50;99.90;;;;;;5008055;28;20207;-92
2022/11/25 05:52:56;;;;;;;5.73;2.50;;;9.60;99.90;;;;;;5023397;28;20225;-92
2022/11/25 05:55:22;;;;;;;2.63;2.43;;;9.60;99.90;;;;;;5006731;28;20178;-91
2022/11/25 05:57:48;;;;;;;0.87;0.73;;;9.60;99.90;;;;;;5006638;28;20194;-92
2022/11/25 06:00:14;;;;;;;4.00;1.97;;;9.60;99.90;;;;;;5022753;28;20213;-93
2022/11/25 06:02:40;;;;;;;18.33;1.77;;;9.60;99.90;;;;;;5022546;28;20301;-91
2022/11/25 06:05:06;;;;;;;2.00;1.30;;;9.70;99.90;;;;;;5022882;28;20352;-92
2022/11/25 06:07:32;;;;;;;1.53;1.43;;;9.70;99.90;;;;;;5022413;28;20824;-93
2022/11/25 06:09:58;;;;;;;5.30;1.23;;;9.70;99.90;;;;;;5006646;28;20284;-92
2022/11/25 06:12:23;;;;;;;2.67;1.83;;;9.80;99.90;;;;;;5013186;28;20276;-93
2022/11/25 06:14:50;;;;;;;5.53;1.37;;;9.70;99.90;;;;;;5004705;28;20575;-90
2022/11/25 06:17:16;;;;;;;2.83;2.20;;;9.70;99.90;;;;;;5022556;28;20245;-93
2022/11/25 06:19:41;;;;;;;2.93;2.10;;;9.80;99.90;;;;;;5037652;28;20238;-93
2022/11/25 06:22:07;;;;;;;2.47;2.27;;;9.80;99.90;;;;;;5024605;28;20200;-90
2022/11/25 06:24:33;;;;;;;2.57;1.80;;;9.80;99.90;;;;;;5006733;28;20258;-93
2022/11/25 06:26:59;;;;;;;5.77;1.57;;;9.80;99.90;;;;;;5006010;28;20826;-90
2022/11/25 06:29:25;;;;;;;8.33;2.83;;;9.80;99.90;;;;;;5006722;28;20209;-93
2022/11/25 06:31:51;;;;;;;1.83;1.23;;;9.80;99.90;;;;;;5039180;28;20697;-93
2022/11/25 06:34:17;;;;;;;5.40;3.17;;;9.80;99.90;;;;;;5004904;28;20194;-91
2022/11/25 06:36:42;;;;;;;3.27;2.43;;;9.80;99.90;;;;;;5023048;28;20186;-93
2022/11/25 06:39:08;;;;;;;3.37;2.00;;;9.70;99.90;;;;;;5022206;28;20226;-93
2022/11/25 06:41:34;;;;;;;2.50;1.43;;;9.60;99.90;;;;;;5005772;28;20250;-91
2022/11/25 06:44:00;;;;;;;2.83;2.20;;;9.60;99.90;;;;;;5005321;28;20234;-92
2022/11/25 06:46:25;;;;;;;2.63;1.63;;;9.60;99.90;;;;;;5006070;28;20600;-93
2022/11/25 06:48:52;;;;;;;3.93;3.13;;;9.50;99.90;;;;;;5023621;28;20196;-92
2022/11/25 06:51:18;;;;;;;9.63;4.30;;;9.40;99.90;;;;;;5021796;28;20219;-88
2022/11/25 06:53:44;;;;;;;8.43;3.03;;;9.40;99.90;;;;;;5037520;28;20621;-90
2022/11/25 06:56:10;;;;;;;7.33;4.53;;;9.40;99.90;;;;;;5021688;28;20233;-89
2022/11/25 06:58:38;;;;;;;14.50;2.83;;;9.30;99.90;;;;;;5038476;28;20683;-93
2022/11/25 07:01:25;;;;;;;2.60;2.20;;;9.30;99.90;;;;;;5023322;28;20277;-90
2022/11/25 07:03:54;;;;;;;7.33;2.53;;;9.20;99.90;;;;;;5038303;28;20241;-89
2022/11/25 07:06:20;;;;;;;2.07;1.97;;;9.20;99.90;;;;;;5052845;28;20217;-88
2022/11/25 07:08:47;;;;;;;1.93;1.83;;;9.20;99.90;;;;;;5033893;28;20214;-89
2022/11/25 07:11:20;;;;;;;2.03;1.80;;;9.10;99.90;;;;;;5003222;28;20271;-89
2022/11/25 07:13:47;;;;;;;3.73;2.73;;;9.20;99.90;;;;;;5037376;28;20272;-88
2022/11/25 07:16:13;;;;;;;3.57;3.03;;;9.10;99.90;;;;;;5021695;28;20277;-89
2022/11/25 07:18:40;;;;;;;3.60;2.93;;;9.10;99.90;;;;;;5004878;28;20183;-88
2022/11/25 07:21:11;;;;;;;5.73;5.07;;;9.10;99.90;;;;;;5035087;28;20253;-87
2022/11/25 07:23:38;;;;;;;1.60;1.33;;;9.10;99.90;;;;;;5035290;28;20222;-91
2022/11/25 07:26:09;;;;;;;2.80;2.60;;;9.10;99.90;;;;;;5019589;28;20220;-90
2022/11/25 07:28:36;;;;;;;4.57;1.43;;;9.10;99.90;;;;;;5035406;28;20214;-92
2022/11/25 07:31:10;;;;;;;6.13;1.67;;;9.00;99.90;;;;;;5021251;28;20192;-91
2022/11/25 07:33:36;;;;;;;1.40;1.30;;;9.00;99.90;;;;;;5036138;28;20249;-90
2022/11/25 07:36:08;;;;;;;5.97;1.70;;;9.10;99.90;;;;;;5020253;28;20213;-90
2022/11/25 07:38:35;;;;;;;3.33;3.00;;;9.00;99.90;;;;;;5021746;28;20220;-90
2022/11/25 07:41:08;;;;;;;0.90;0.90;;;9.00;99.90;;;;;;5020909;28;20217;-91
2022/11/25 07:43:34;;;;;;;2.83;1.63;;;9.00;99.90;;;;;;5036521;28;20623;-89
2022/11/25 07:46:11;;;;;;;2.53;2.27;;;9.00;99.90;;;;;;5005741;28;20198;-88
2022/11/25 07:48:37;;;;;;;10.90;1.93;;;9.10;99.90;;;;;;5037278;28;20217;-87
2022/11/25 07:51:03;;;;;;;5.87;2.20;;;9.00;99.90;;;;;;5021923;28;20309;-88
2022/11/25 07:53:29;;;;;;;4.13;1.67;;;9.10;99.90;;;;;;5017116;28;20304;-88
2022/11/25 07:55:54;;;;;;;4.93;2.53;;;9.10;99.90;;;;;;5017703;28;20577;-88
2022/11/25 07:58:20;;;;;;;1.63;1.53;;;9.10;99.90;;;;;;5001312;28;20182;-88
2022/11/25 08:00:46;;;;;;;4.77;2.90;;;9.10;99.90;;;;;;5018431;28;20201;-88
2022/11/25 08:03:12;;;;;;;3.03;2.03;;;9.10;99.90;;;;;;5019918;28;20214;-88
2022/11/25 08:05:37;;;;;;;1.57;1.47;;;9.10;99.90;;;;;;5020487;28;20586;-88
2022/11/25 08:08:04;;;;;;;15.80;4.10;;;9.20;99.90;;;;;;4999226;28;20220;-88
2022/11/25 08:10:29;;;;;;;3.40;2.43;;;9.20;99.90;;;;;;5000612;28;20216;-88
2022/11/25 08:12:55;;;;;;;4.70;2.33;;;9.30;99.90;;;;;;5005185;28;20209;-88
2022/11/25 08:15:21;;;;;;;3.47;1.93;;;9.30;99.90;;;;;;5003074;28;20214;-88
2022/11/25 08:17:48;;;;;;;7.50;3.03;;;9.30;99.90;;;;;;5016558;28;20220;-88
2022/11/25 08:20:14;;;;;;;2.83;2.63;;;9.30;99.90;;;;;;5017010;28;20210;-88
2022/11/25 08:22:40;;;;;;;5.83;2.40;;;9.40;99.90;;;;;;5002781;28;20225;-88
2022/11/25 08:25:06;;;;;;;5.63;4.33;;;9.40;99.90;;;;;;5001070;28;20224;-88
2022/11/25 08:27:32;;;;;;;7.07;2.17;;;9.40;99.90;;;;;;5015595;28;20622;-88
2022/11/25 08:29:58;;;;;;;1.80;1.70;;;9.40;99.90;;;;;;5000198;28;20240;-88
2022/11/25 08:32:23;;;;;;;2.13;1.93;;;9.50;99.90;;;;;;5001862;28;20229;-88
2022/11/25 08:34:49;;;;;;;2.57;1.93;;;9.50;99.90;;;;;;5006815;28;20309;-88
2022/11/25 08:37:15;;;;;;;3.60;2.00;;;9.50;99.90;;;;;;5005476;28;20182;-88
2022/11/25 08:39:41;;;;;;;8.30;2.57;;;9.50;99.90;;;;;;5007212;28;20192;-88
2022/11/25 08:42:06;;;;;;;1.93;1.77;;;9.60;99.90;;;;;;5007599;28;20245;-88
2022/11/25 08:44:33;;;;;;;6.17;2.50;;;9.60;99.90;;;;;;5022450;28;20232;-88
2022/11/25 08:46:59;;;;;;;3.80;2.70;;;9.60;99.90;;;;;;5038320;28;20316;-88
2022/11/25 08:49:28;;;;;;;3.00;2.33;;;9.70;99.90;;;;;;5022369;28;20191;-88
2022/11/25 08:51:54;;;;;;;3.70;2.77;;;9.60;99.90;;;;;;5022267;28;20197;-88
2022/11/25 08:54:23;;;;;;;2.60;1.73;;;9.70;99.90;;;;;;5004311;28;20210;-88
2022/11/25 08:56:49;;;;;;;2.90;2.67;;;9.60;99.90;;;;;;5006347;28;20214;-88
2022/11/25 08:59:15;;;;;;;2.20;2.00;;;9.70;99.90;;;;;;5003364;28;20348;-88
2022/11/25 09:01:40;;;;;;;2.70;2.50;;;9.70;99.90;;;;;;5007177;28;20209;-88
2022/11/25 09:04:06;;;;;;;5.97;3.67;;;9.70;99.90;;;;;;5005123;28;20230;-88
2022/11/25 09:06:32;;;;;;;6.27;3.00;;;9.80;99.90;;;;;;5021947;28;20739;-89
2022/11/25 09:09:00;;;;;;;6.33;2.23;;;9.80;99.90;;;;;;5021120;28;20284;-88
2022/11/25 09:11:26;;;;;;;8.03;1.90;;;9.80;99.90;;;;;;5021669;28;20646;-88
2022/11/25 09:13:52;;;;;;;2.67;1.30;;;9.90;99.90;;;;;;5038150;28;20220;-88
2022/11/25 09:16:19;;;;;;;5.90;3.43;;;9.90;99.90;;;;;;5004446;28;20182;-88
2022/11/25 09:18:45;;;;;;;1.67;1.60;;;9.90;99.90;;;;;;5021076;28;20233;-88
2022/11/25 09:21:14;;;;;;;2.00;1.80;;;10.00;99.90;;;;;;5021167;28;20210;-88
2022/11/25 09:23:40;;;;;;;5.30;2.37;;;10.00;99.90;;;;;;5037317;28;20218;-89
2022/11/25 09:26:07;;;;;;;5.33;1.83;;;10.00;99.90;;;;;;5003396;28;20677;-88
2022/11/25 09:28:33;;;;;;;3.70;2.57;;;10.00;99.90;;;;;;5039054;28;20219;-88
2022/11/25 09:31:06;;;;;;;3.60;1.43;;;10.00;99.90;;;;;;5037565;28;20170;-88
2022/11/25 09:33:31;;;;;;;5.70;1.73;;;10.00;99.90;;;;;;5021723;28;20218;-88
2022/11/25 09:36:00;;;;;;;3.43;3.10;;;10.10;99.90;;;;;;5020236;28;20682;-88
2022/11/25 09:38:25;;;;;;;3.53;2.47;;;10.20;99.90;;;;;;5035247;28;20213;-88
2022/11/25 09:47:27;;;;;;;7.23;2.23;;;10.30;99.90;;;;;;5036033;28;20230;-88
2022/11/25 09:49:52;;;;;;;2.17;1.60;;;10.30;99.90;;;;;;5038621;28;20222;-88
2022/11/25 09:52:30;;;;;;;2.53;1.63;;;10.40;99.90;;;;;;5035588;28;20225;-88
2022/11/25 09:55:05;;;;;;;3.97;2.33;;;10.40;99.90;;;;;;5039360;28;20181;-90
2022/11/25 09:57:58;;;;;;;2.37;2.00;;;10.30;99.90;;;;;;5036568;28;20221;-89
2022/11/25 10:00:27;;;;;;;2.07;1.87;;;10.40;99.90;;;;;;5036627;28;20578;-89
2022/11/25 10:03:20;;;;;;;1.50;1.33;;;10.40;99.90;;;;;;5020668;28;20216;-89
2022/11/25 10:05:58;;;;;;;2.43;1.20;;;10.50;99.90;;;;;;5037761;28;20658;-89
2022/11/25 10:08:27;;;;;;;1.77;1.67;;;10.50;99.90;;;;;;5037162;28;20572;-88
2022/11/25 10:11:20;;;;;;;3.27;2.20;;;10.50;99.90;;;;;;5036110;28;20296;-88
2022/11/25 10:14:06;;;;;;;1.03;1.03;;;10.50;99.90;;;;;;5038651;28;20230;-88
2022/11/25 10:16:40;;;;;;;4.23;3.17;;;10.60;99.90;;;;;;5035326;28;20222;-88
2022/11/25 10:19:33;;;;;;;2.47;2.27;;;10.50;99.90;;;;;;5038725;28;20186;-88
2022/11/25 10:22:11;;;;;;;2.83;2.13;;;10.50;99.90;;;;;;5038850;28;20305;-88
2022/11/25 10:24:36;;;;;;;1.77;1.40;;;10.60;99.90;;;;;;5021588;28;21013;-88
2022/11/25 10:27:05;;;;;;;7.13;1.90;;;10.70;99.90;;;;;;5037073;28;20210;-88
2022/11/25 10:29:35;;;;;;;5.27;2.37;;;10.80;99.90;;;;;;5003230;28;20221;-88
2022/11/25 10:32:21;;;;;;;3.30;1.20;;;10.80;99.90;;;;;;5027679;28;20289;-88
2022/11/25 10:34:52;;;;;;;1.90;1.43;;;10.90;99.90;;;;;;5034501;28;20223;-88
2022/11/25 10:37:29;;;;;;;2.73;1.40;;;11.00;99.90;;;;;;5036547;28;20182;-88
2022/11/25 10:39:55;;;;;;;1.60;1.50;;;11.10;99.90;;;;;;5038627;28;20206;-89
2022/11/25 10:42:25;;;;;;;1.57;1.27;;;11.20;99.90;;;;;;5001479;28;20705;-88
2022/11/25 10:44:51;;;;;;;9.83;1.70;;;11.20;99.90;;;;;;5033226;28;20259;-88
2022/11/25 10:47:42;;;;;;;5.87;2.23;;;11.30;99.90;;;;;;5034728;28;20293;-88
2022/11/25 10:50:32;;;;;;;0.90;0.90;;;11.10;99.90;;;;;;5052207;28;20214;-88
2022/11/25 10:53:07;;;;;;;2.57;1.47;;;11.10;99.90;;;;;;5035556;28;20247;-87
2022/11/25 10:55:33;;;;;;;2.80;1.33;;;11.20;99.90;;;;;;5034540;28;20547;-88
2022/11/25 10:58:30;;;;;;;1.13;0.83;;;11.30;99.90;;;;;;5034768;28;20232;-89
2022/11/25 11:01:13;;;;;;;10.67;1.27;;;11.40;99.90;;;;;;5035742;28;20845;-88
2022/11/25 11:03:41;;;;;;;2.87;1.47;;;11.50;99.90;;;;;;5036047;28;20230;-88
2022/11/25 11:06:30;;;;;;;1.07;0.97;;;11.60;99.90;;;;;;5035507;28;20272;-88
2022/11/25 11:08:56;;;;;;;0.73;0.67;;;11.70;99.90;;;;;;5035580;28;20246;-88
2022/11/25 11:11:22;;;;;;;6.13;1.30;;;11.80;99.90;;;;;;5018718;28;20233;-88
2022/11/25 11:13:56;;;;;;;4.40;1.37;;;11.80;99.90;;;;;;5015196;28;20290;-88
2022/11/25 11:16:26;;;;;;;7.67;1.57;;;11.90;99.90;;;;;;5035610;28;20183;-88
2022/11/25 11:18:54;;;;;;;9.43;1.43;;;11.90;99.90;;;;;;5034430;28;20187;-87
2022/11/25 11:21:32;;;;;;;3.90;1.30;;;11.90;99.90;;;;;;5032734;28;20301;-88
2022/11/25 11:23:59;;;;;;;1.40;1.40;;;11.70;99.90;;;;;;5021314;28;20222;-88
2022/11/25 11:26:34;;;;;;;5.17;1.30;;;11.70;99.90;;;;;;5035158;28;20210;-88
2022/11/25 11:29:12;;;;;;;2.53;1.20;;;11.70;99.90;;;;;;5035168;28;20228;-89
2022/11/25 11:31:44;;;;;;;6.17;1.60;;;11.70;99.90;;;;;;5033614;28;20706;-89
2022/11/25 11:34:22;;;;;;;2.13;1.20;;;11.70;99.90;;;;;;5034984;28;20214;-88
2022/11/25 11:37:18;;;;;;;0.30;0.30;;;11.80;99.90;;;;;;5034358;28;20645;-89
2022/11/25 11:39:53;;;;;;;0.60;0.57;;;11.70;99.90;;;;;;5032670;28;20219;-88
2022/11/25 11:42:41;;;;;;;7.63;1.57;;;11.70;99.90;;;;;;5033845;28;20228;-88
2022/11/25 11:45:31;;;;;;;1.23;0.83;;;11.70;99.90;;;;;;5032350;28;20226;-88
2022/11/25 11:48:17;;;;;;;3.70;1.30;;;11.80;99.90;;;;;;5034212;28;20219;-88
2022/11/25 11:50:50;;;;;;;6.13;1.63;;;11.90;99.90;;;;;;5032491;28;20314;-89
2022/11/25 11:53:38;;;;;;;1.23;1.03;;;12.00;99.90;;;;;;5031557;28;20647;-88
2022/11/25 11:56:10;;;;;;;1.43;0.87;;;12.00;99.90;;;;;;5032834;28;20632;-88
2022/11/25 11:58:47;;;;;;;6.17;1.67;;;12.10;99.90;;;;;;5032310;28;20275;-88
2022/11/25 12:01:56;;;;;;;2.67;1.10;;;12.00;99.90;;;;;;5030319;28;20190;-88
2022/11/25 12:04:43;;;;;;;1.30;1.27;;;12.00;99.90;;;;;;5032921;28;20544;-88
2022/11/25 12:07:36;;;;;;;2.20;0.97;;;12.10;99.90;;;;;;5032746;28;20182;-87
2022/11/25 12:10:14;;;;;;;6.60;1.00;;;12.10;99.90;;;;;;5032831;28;20182;-88
2022/11/25 12:13:19;;;;;;;9.63;1.83;;;12.10;99.90;;;;;;5031938;28;20683;-89
2022/11/25 12:15:52;;;;;;;0.60;0.60;;;12.10;99.90;;;;;;5028841;28;20228;-88
2022/11/25 12:18:55;;;;;;;5.40;0.73;;;12.10;99.90;;;;;;5047689;28;20230;-88
2022/11/25 12:21:50;;;;;;;3.83;0.63;;;12.10;99.90;;;;;;5029499;28;20686;-87
2022/11/25 12:24:23;;;;;;;0.83;0.67;;;12.10;99.90;;;;;;5034028;28;20229;-88
2022/11/25 12:27:15;;;;;;;0.90;0.90;;;12.40;99.90;;;;;;5032461;28;20577;-88
2022/11/25 12:30:06;;;;;;;11.77;2.00;;;12.50;99.90;;;;;;5026389;28;20276;-88
2022/11/25 12:33:16;;;;;;;2.67;1.13;;;13.00;99.90;;;;;;5048692;28;20590;-89
2022/11/25 12:35:51;;;;;;;6.97;1.07;;;13.10;99.90;;;;;;5047872;28;20293;-89
2022/11/25 12:38:23;;;;;;;2.87;1.77;;;13.00;99.90;;;;;;5032604;28;20222;-89
2022/11/25 12:40:54;;;;;;;6.97;1.07;;;12.80;99.90;;;;;;5031492;28;20222;-88
2022/11/25 12:43:48;;;;;;;1.67;1.57;;;12.70;99.90;;;;;;5033085;28;20230;-89
2022/11/25 12:46:34;;;;;;;6.30;1.40;;;12.70;99.90;;;;;;5035007;28;20742;-89
2022/11/25 12:49:00;;;;;;;1.83;0.73;;;12.70;99.90;;;;;;5033057;28;20289;-90
2022/11/25 12:51:38;;;;;;;1.33;0.50;;;12.60;99.90;;;;;;5014249;28;20213;-89
2022/11/25 12:54:33;;;;;;;9.53;0.90;;;12.40;99.90;;;;;;5034027;28;20752;-89
2022/11/25 12:57:30;;;;;;;5.83;1.63;;;12.50;99.90;;;;;;5019597;28;20219;-88
2022/11/25 13:00:24;;;;;;;1.70;0.73;;;12.60;99.90;;;;;;5029825;28;20669;-88
2022/11/25 13:03:20;;;;;;;3.70;0.83;;;12.70;99.90;;;;;;5033202;28;20219;-88
2022/11/25 13:05:58;;;;;;;10.43;2.20;;;12.60;99.90;;;;;;5035959;28;20238;-88
2022/11/25 13:08:29;;;;;;;4.57;1.37;;;12.50;99.90;;;;;;5033940;28;20283;-88
2022/11/25 13:11:07;;;;;;;1.27;0.80;;;12.40;99.90;;;;;;5032464;28;20554;-88
2022/11/25 13:14:11;;;;;;;0.83;0.80;;;12.40;99.90;;;;;;5033760;28;20225;-88
2022/11/25 13:16:38;;;;;;;1.60;1.40;;;12.30;99.90;;;;;;5009808;28;20309;-88
2022/11/25 13:19:11;;;;;;;1.67;1.37;;;12.30;99.90;;;;;;5017743;28;20199;-88
2022/11/25 13:22:05;;;;;;;0.20;0.20;;;12.30;99.90;;;;;;5020967;28;20215;-88
2022/11/25 13:24:49;;;;;;;0.87;0.50;;;12.20;99.90;;;;;;5033005;28;20737;-88
2022/11/25 13:27:38;;;;;;;10.63;1.03;;;12.20;99.90;;;;;;5037869;28;20225;-88
2022/11/25 13:30:25;;;;;;;3.83;1.30;;;12.20;99.90;;;;;;5036751;28;20717;-88